Time;durP1;ratioP1;P1;durP2;ratioP2;P2;SDS_P1;SDS_P2;PMS_P1;PMS_P2;Temp;Humidity;BMP_temperature;BMP_pressure;BME280_temperature;BME280_humidity;BME280_pressure;Samples;Min_cycle;Max_cycle;Signal;HPM_P1;HPM_P2
2024/01/07 00:00:52;;;;;;;;;;;;;;;;;;2205803;59;2061;-23
2024/01/07 00:03:23;;;;;;;;;;;;;;;;;;2206385;59;2235;-19
2024/01/07 00:05:53;;;;;;;;;;;;;;;;;;2209440;59;1908;-19
2024/01/07 00:08:23;;;;;;;;;;;;;;;;;;2207202;59;1875;-20
2024/01/07 00:10:53;;;;;;;;;;;;;;;;;;2207999;60;3664;-19
2024/01/07 00:13:24;;;;;;;;;;;;;;;;;;2208796;59;1775;-19
2024/01/07 00:15:55;;;;;;;;;;;;;;;;;;2207989;67;2267;-19
2024/01/07 00:18:26;;;;;;;;;;;;;;;;;;2207456;67;2585;-19
2024/01/07 00:20:57;;;;;;;;;;;;;;;;;;2207966;59;2879;-19
2024/01/07 00:23:27;;;;;;;;;;;;;;;;;;2209569;59;1874;-19
2024/01/07 00:25:57;;;;;;;;;;;;;;;;;;2208022;67;1856;-19
2024/01/07 00:28:28;;;;;;;;;;;;;;;;;;2207517;59;1943;-19
2024/01/07 00:30:58;;;;;;;;;;;;;;;;;;2205707;59;1859;-19
2024/01/07 00:33:29;;;;;;;;;;;;;;;;;;2208763;59;2183;-19
2024/01/07 00:36:00;;;;;;;;;;;;;;;;;;2206845;59;1975;-19
2024/01/07 00:38:30;;;;;;;;;;;;;;;;;;2208535;67;2142;-19
2024/01/07 00:41:00;;;;;;;;;;;;;;;;;;2205183;67;2559;-21
2024/01/07 00:43:31;;;;;;;;;;;;;;;;;;2206692;67;1782;-19
2024/01/07 00:46:01;;;;;;;;;;;;;;;;;;2208128;67;2126;-19
2024/01/07 00:48:32;;;;;;;;;;;;;;;;;;2207273;67;2205;-19
2024/01/07 00:51:02;;;;;;;;;;;;;;;;;;2207607;59;1719;-19
2024/01/07 00:53:32;;;;;;;;;;;;;;;;;;2207374;67;2477;-19
2024/01/07 00:56:03;;;;;;;;;;;;;;;;;;2206922;59;2436;-19
2024/01/07 00:58:33;;;;;;;;;;;;;;;;;;2205829;67;2312;-19
2024/01/07 01:01:03;;;;;;;;;;;;;;;;;;2207171;67;2570;-19
2024/01/07 01:03:35;;;;;;;;;;;;;;;;;;2204339;59;2333;-19
2024/01/07 01:06:07;;;;;;;;;;;;;;;;;;2205296;59;2214;-23
2024/01/07 01:08:37;;;;;;;;;;;;;;;;;;2205874;59;2344;-22
2024/01/07 01:11:11;;;;;;;;;;;;;;;;;;2211215;59;1592;-22
2024/01/07 01:13:41;;;;;;;;;;;;;;;;;;2207918;59;2438;-23
2024/01/07 01:16:11;;;;;;;;;;;;;;;;;;2207648;67;2963;-23
2024/01/07 01:18:42;;;;;;;;;;;;;;;;;;2207812;67;1822;-25
2024/01/07 01:21:12;;;;;;;;;;;;;;;;;;2208180;67;2598;-22
2024/01/07 01:23:44;;;;;;;;;;;;;;;;;;2207845;59;2039;-23
2024/01/07 01:26:15;;;;;;;;;;;;;;;;;;2207867;59;1994;-23
2024/01/07 01:28:45;;;;;;;;;;;;;;;;;;2207674;59;2025;-23
2024/01/07 01:31:15;;;;;;;;;;;;;;;;;;2208498;67;3241;-23
2024/01/07 01:33:46;;;;;;;;;;;;;;;;;;2206180;59;3123;-22
2024/01/07 01:36:16;;;;;;;;;;;;;;;;;;2207918;67;2435;-23
2024/01/07 01:38:48;;;;;;;;;;;;;;;;;;2207105;59;3290;-22
2024/01/07 01:41:18;;;;;;;;;;;;;;;;;;2208168;67;2487;-23
2024/01/07 01:43:49;;;;;;;;;;;;;;;;;;2208352;67;1959;-22
2024/01/07 01:46:19;;;;;;;;;;;;;;;;;;2207782;59;2038;-22
2024/01/07 01:48:50;;;;;;;;;;;;;;;;;;2207474;59;1860;-23
2024/01/07 01:51:21;;;;;;;;;;;;;;;;;;2206908;67;1769;-22
2024/01/07 01:53:51;;;;;;;;;;;;;;;;;;2208058;67;1832;-22
2024/01/07 01:56:22;;;;;;;;;;;;;;;;;;2207251;67;1817;-23
2024/01/07 01:58:52;;;;;;;;;;;;;;;;;;2207526;67;1820;-23
2024/01/07 02:01:23;;;;;;;;;;;;;;;;;;2206550;59;2172;-22
2024/01/07 02:03:54;;;;;;;;;;;;;;;;;;2207291;67;1939;-22
2024/01/07 02:06:24;;;;;;;;;;;;;;;;;;2207313;59;1728;-22
2024/01/07 02:08:55;;;;;;;;;;;;;;;;;;2207058;67;2662;-23
2024/01/07 02:11:25;;;;;;;;;;;;;;;;;;2211110;67;1770;-23
2024/01/07 02:13:55;;;;;;;;;;;;;;;;;;2207815;59;2159;-22
2024/01/07 02:16:44;;;;;;;;;;;;;;;;;;2208711;59;1735;-23
2024/01/07 02:19:14;;;;;;;;;;;;;;;;;;2204190;67;1829;-22
2024/01/07 02:21:44;;;;;;;;;;;;;;;;;;2205505;67;2214;-23
2024/01/07 02:24:15;;;;;;;;;;;;;;;;;;2209613;67;1976;-22
2024/01/07 02:26:46;;;;;;;;;;;;;;;;;;2206679;59;1685;-22
2024/01/07 02:29:16;;;;;;;;;;;;;;;;;;2206398;67;2212;-23
2024/01/07 02:31:46;;;;;;;;;;;;;;;;;;2207670;59;2632;-23
2024/01/07 02:34:16;;;;;;;;;;;;;;;;;;2209944;67;2690;-19
2024/01/07 02:36:47;;;;;;;;;;;;;;;;;;2206871;67;1905;-19
2024/01/07 02:39:17;;;;;;;;;;;;;;;;;;2206952;67;1909;-19
2024/01/07 02:41:47;;;;;;;;;;;;;;;;;;2206532;67;1944;-19
2024/01/07 02:44:17;;;;;;;;;;;;;;;;;;2208566;67;2358;-19
2024/01/07 02:46:48;;;;;;;;;;;;;;;;;;2206210;59;2040;-19
2024/01/07 02:49:18;;;;;;;;;;;;;;;;;;2208475;67;1773;-19
2024/01/07 02:51:49;;;;;;;;;;;;;;;;;;2207169;67;2618;-19
2024/01/07 02:54:20;;;;;;;;;;;;;;;;;;2208725;67;1745;-19
2024/01/07 02:56:50;;;;;;;;;;;;;;;;;;2205259;67;1885;-19
2024/01/07 02:59:20;;;;;;;;;;;;;;;;;;2208092;67;2330;-20
2024/01/07 03:01:51;;;;;;;;;;;;;;;;;;2207816;59;2509;-19
2024/01/07 03:04:21;;;;;;;;;;;;;;;;;;2210148;59;1763;-20
2024/01/07 03:06:52;;;;;;;;;;;;;;;;;;2210160;59;1933;-19
2024/01/07 03:09:22;;;;;;;;;;;;;;;;;;2206604;59;2466;-19
2024/01/07 03:11:54;;;;;;;;;;;;;;;;;;2206995;67;2538;-20
2024/01/07 03:14:24;;;;;;;;;;;;;;;;;;2207576;59;2091;-19
2024/01/07 03:20:08;;;;;;;;;;;;;;;;;;2208616;67;2418;-19
2024/01/07 03:22:38;;;;;;;;;;;;;;;;;;2205238;59;1837;-19
2024/01/07 03:25:09;;;;;;;;;;;;;;;;;;2205966;67;1871;-19
2024/01/07 03:27:39;;;;;;;;;;;;;;;;;;2207682;59;2046;-19
2024/01/07 03:30:10;;;;;;;;;;;;;;;;;;2209785;67;2392;-19
2024/01/07 03:32:40;;;;;;;;;;;;;;;;;;2208304;67;2437;-19
2024/01/07 03:35:11;;;;;;;;;;;;;;;;;;2207129;67;2245;-19
2024/01/07 03:37:41;;;;;;;;;;;;;;;;;;2208605;67;1945;-19
2024/01/07 03:40:11;;;;;;;;;;;;;;;;;;2207184;59;1943;-20
2024/01/07 03:42:42;;;;;;;;;;;;;;;;;;2207408;67;1786;-19
2024/01/07 03:45:12;;;;;;;;;;;;;;;;;;2207200;67;2194;-19
2024/01/07 03:47:42;;;;;;;;;;;;;;;;;;2208115;59;1781;-19
2024/01/07 03:50:13;;;;;;;;;;;;;;;;;;2206203;67;1825;-19
2024/01/07 03:52:43;;;;;;;;;;;;;;;;;;2208437;67;2683;-19
2024/01/07 03:55:13;;;;;;;;;;;;;;;;;;2207756;67;2111;-19
2024/01/07 03:57:43;;;;;;;;;;;;;;;;;;2208808;59;1861;-19
2024/01/07 04:00:14;;;;;;;;;;;;;;;;;;2208029;67;2012;-19
2024/01/07 04:02:44;;;;;;;;;;;;;;;;;;2207911;59;2045;-19
2024/01/07 04:05:15;;;;;;;;;;;;;;;;;;2206785;59;2596;-19
2024/01/07 04:07:45;;;;;;;;;;;;;;;;;;2207676;59;2228;-19
2024/01/07 04:10:19;;;;;;;;;;;;;;;;;;2206568;59;1936;-19
2024/01/07 04:12:49;;;;;;;;;;;;;;;;;;2207241;67;2339;-19
2024/01/07 04:15:19;;;;;;;;;;;;;;;;;;2208016;59;1986;-19
2024/01/07 04:17:50;;;;;;;;;;;;;;;;;;2207359;67;1754;-19
2024/01/07 04:20:20;;;;;;;;;;;;;;;;;;2205369;67;1968;-19
2024/01/07 04:22:50;;;;;;;;;;;;;;;;;;2206890;59;1866;-19
2024/01/07 04:25:20;;;;;;;;;;;;;;;;;;2209018;67;2369;-19
2024/01/07 04:27:51;;;;;;;;;;;;;;;;;;2207548;59;1781;-19
2024/01/07 04:30:21;;;;;;;;;;;;;;;;;;2207978;67;1867;-20
2024/01/07 04:32:51;;;;;;;;;;;;;;;;;;2206328;59;2103;-19
2024/01/07 04:35:22;;;;;;;;;;;;;;;;;;2207805;67;1760;-19
2024/01/07 04:37:52;;;;;;;;;;;;;;;;;;2206856;59;2282;-20
2024/01/07 04:40:22;;;;;;;;;;;;;;;;;;2207449;67;2411;-20
2024/01/07 04:42:52;;;;;;;;;;;;;;;;;;2206680;59;2081;-19
2024/01/07 04:45:23;;;;;;;;;;;;;;;;;;2204397;67;2118;-20
2024/01/07 04:47:56;;;;;;;;;;;;;;;;;;2208107;67;1857;-20
2024/01/07 04:50:26;;;;;;;;;;;;;;;;;;2207845;59;1913;-19
2024/01/07 04:52:57;;;;;;;;;;;;;;;;;;2207800;67;1773;-20
2024/01/07 04:55:27;;;;;;;;;;;;;;;;;;2206959;67;1781;-19
2024/01/07 04:57:57;;;;;;;;;;;;;;;;;;2205220;59;1782;-19
2024/01/07 05:00:28;;;;;;;;;;;;;;;;;;2206354;59;1945;-19
2024/01/07 05:02:58;;;;;;;;;;;;;;;;;;2207726;59;2161;-19
2024/01/07 05:05:28;;;;;;;;;;;;;;;;;;2206942;59;2245;-20
2024/01/07 05:08:00;;;;;;;;;;;;;;;;;;2205579;59;1765;-22
2024/01/07 05:10:31;;;;;;;;;;;;;;;;;;2207003;59;1794;-22
2024/01/07 05:13:04;;;;;;;;;;;;;;;;;;2205464;59;1850;-23
2024/01/07 05:15:35;;;;;;;;;;;;;;;;;;2207261;67;1824;-23
2024/01/07 05:18:09;;;;;;;;;;;;;;;;;;2205835;67;2207;-22
2024/01/07 05:20:40;;;;;;;;;;;;;;;;;;2206692;67;1910;-23
2024/01/07 05:23:10;;;;;;;;;;;;;;;;;;2204975;59;2699;-23
2024/01/07 05:25:42;;;;;;;;;;;;;;;;;;2206276;67;2116;-19
2024/01/07 05:28:12;;;;;;;;;;;;;;;;;;2205941;59;1947;-20
2024/01/07 05:30:43;;;;;;;;;;;;;;;;;;2206707;67;1607;-20
2024/01/07 05:33:14;;;;;;;;;;;;;;;;;;2205201;59;2362;-22
2024/01/07 05:35:44;;;;;;;;;;;;;;;;;;2207221;59;1804;-22
2024/01/07 05:38:14;;;;;;;;;;;;;;;;;;2205178;59;2128;-22
2024/01/07 05:40:45;;;;;;;;;;;;;;;;;;2204424;59;1953;-21
2024/01/07 05:43:15;;;;;;;;;;;;;;;;;;2207457;67;1963;-20
2024/01/07 05:45:45;;;;;;;;;;;;;;;;;;2207519;59;1730;-23
2024/01/07 05:48:16;;;;;;;;;;;;;;;;;;2205890;59;2515;-22
2024/01/07 05:50:46;;;;;;;;;;;;;;;;;;2205166;67;2101;-20
2024/01/07 05:53:17;;;;;;;;;;;;;;;;;;2205019;67;1927;-20
2024/01/07 05:55:47;;;;;;;;;;;;;;;;;;2206848;59;2319;-22
2024/01/07 05:58:17;;;;;;;;;;;;;;;;;;2203511;59;1897;-20
2024/01/07 06:00:48;;;;;;;;;;;;;;;;;;2204544;59;2835;-23
2024/01/07 06:03:19;;;;;;;;;;;;;;;;;;2204935;59;2670;-20
2024/01/07 06:05:49;;;;;;;;;;;;;;;;;;2207067;59;2238;-19
2024/01/07 06:08:20;;;;;;;;;;;;;;;;;;2207201;53;3042;-20
2024/01/07 06:10:50;;;;;;;;;;;;;;;;;;2212939;59;1895;-22
2024/01/07 06:13:20;;;;;;;;;;;;;;;;;;2211796;58;2955;-20
2024/01/07 06:15:52;;;;;;;;;;;;;;;;;;2212965;59;1773;-23
2024/01/07 06:18:22;;;;;;;;;;;;;;;;;;2211156;66;2313;-22
2024/01/07 06:20:52;;;;;;;;;;;;;;;;;;2212994;59;2060;-21
2024/01/07 06:23:23;;;;;;;;;;;;;;;;;;2212378;66;1953;-22
2024/01/07 06:25:53;;;;;;;;;;;;;;;;;;2213802;66;1813;-22
2024/01/07 06:28:23;;;;;;;;;;;;;;;;;;2213137;59;1924;-20
2024/01/07 06:30:53;;;;;;;;;;;;;;;;;;2213495;66;1781;-20
2024/01/07 06:33:24;;;;;;;;;;;;;;;;;;2212497;59;3548;-21
2024/01/07 06:35:54;;;;;;;;;;;;;;;;;;2212539;66;2143;-22
2024/01/07 06:38:24;;;;;;;;;;;;;;;;;;2212161;59;1930;-20
2024/01/07 06:40:55;;;;;;;;;;;;;;;;;;2209205;67;1937;-19
2024/01/07 06:43:25;;;;;;;;;;;;;;;;;;2212221;66;2640;-20
2024/01/07 06:45:56;;;;;;;;;;;;;;;;;;2211916;66;1909;-19
2024/01/07 06:48:26;;;;;;;;;;;;;;;;;;2211700;66;2268;-19
2024/01/07 06:50:57;;;;;;;;;;;;;;;;;;2212215;59;2442;-19
2024/01/07 06:53:27;;;;;;;;;;;;;;;;;;2209884;67;1871;-23
2024/01/07 06:55:58;;;;;;;;;;;;;;;;;;2212041;59;2708;-23
2024/01/07 06:58:28;;;;;;;;;;;;;;;;;;2212878;53;2729;-22
2024/01/07 07:00:59;;;;;;;;;;;;;;;;;;2207916;67;2430;-21
2024/01/07 07:03:29;;;;;;;;;;;;;;;;;;2208140;59;2019;-19
2024/01/07 07:06:00;;;;;;;;;;;;;;;;;;2208142;59;2147;-23
2024/01/07 07:08:30;;;;;;;;;;;;;;;;;;2206910;67;1812;-20
2024/01/07 07:11:01;;;;;;;;;;;;;;;;;;2208616;67;1800;-21
2024/01/07 07:13:31;;;;;;;;;;;;;;;;;;2208859;59;1810;-22
2024/01/07 07:16:01;;;;;;;;;;;;;;;;;;2206386;67;1944;-22
2024/01/07 07:18:32;;;;;;;;;;;;;;;;;;2207472;67;1769;-19
2024/01/07 07:21:03;;;;;;;;;;;;;;;;;;2206189;59;2658;-22
2024/01/07 07:23:33;;;;;;;;;;;;;;;;;;2205504;59;2185;-22
2024/01/07 07:26:04;;;;;;;;;;;;;;;;;;2208403;53;3191;-22
2024/01/07 07:28:34;;;;;;;;;;;;;;;;;;2209014;67;1752;-22
2024/01/07 07:31:05;;;;;;;;;;;;;;;;;;2205164;67;1997;-20
2024/01/07 07:33:35;;;;;;;;;;;;;;;;;;2205339;59;2624;-19
2024/01/07 07:36:06;;;;;;;;;;;;;;;;;;2201695;59;2260;-23
2024/01/07 07:38:37;;;;;;;;;;;;;;;;;;2205590;67;2331;-23
2024/01/07 07:41:08;;;;;;;;;;;;;;;;;;2206305;53;3099;-22
2024/01/07 07:43:39;;;;;;;;;;;;;;;;;;2208972;53;3190;-20
2024/01/07 07:46:11;;;;;;;;;;;;;;;;;;2203805;59;2244;-22
2024/01/07 07:48:42;;;;;;;;;;;;;;;;;;2207954;59;2047;-19
2024/01/07 07:51:12;;;;;;;;;;;;;;;;;;2206794;59;2303;-22
2024/01/07 07:53:42;;;;;;;;;;;;;;;;;;2207376;67;1758;-21
2024/01/07 07:56:12;;;;;;;;;;;;;;;;;;2207569;67;2378;-19
2024/01/07 07:58:43;;;;;;;;;;;;;;;;;;2208003;67;1812;-22
2024/01/07 08:01:13;;;;;;;;;;;;;;;;;;2208073;53;2551;-22
2024/01/07 08:03:43;;;;;;;;;;;;;;;;;;2207929;63;3419;-20
2024/01/07 08:06:14;;;;;;;;;;;;;;;;;;2207660;59;1971;-20
2024/01/07 08:08:45;;;;;;;;;;;;;;;;;;2208607;59;1769;-22
2024/01/07 08:11:15;;;;;;;;;;;;;;;;;;2205541;66;2055;-20
2024/01/07 08:13:45;;;;;;;;;;;;;;;;;;2207265;59;1746;-21
2024/01/07 08:16:15;;;;;;;;;;;;;;;;;;2203061;59;2090;-19
2024/01/07 08:18:46;;;;;;;;;;;;;;;;;;2210837;53;2621;-19
2024/01/07 08:21:16;;;;;;;;;;;;;;;;;;2212141;59;2266;-22
2024/01/07 08:23:47;;;;;;;;;;;;;;;;;;2212522;59;1820;-22
2024/01/07 08:26:20;;;;;;;;;;;;;;;;;;2210773;59;2673;-19
2024/01/07 08:28:50;;;;;;;;;;;;;;;;;;2213004;66;1829;-20
2024/01/07 08:31:21;;;;;;;;;;;;;;;;;;2210572;59;2424;-20
2024/01/07 08:33:51;;;;;;;;;;;;;;;;;;2212763;53;3278;-19
2024/01/07 08:36:22;;;;;;;;;;;;;;;;;;2206771;59;3271;-22
2024/01/07 08:38:52;;;;;;;;;;;;;;;;;;2208247;67;1760;-20
2024/01/07 08:41:22;;;;;;;;;;;;;;;;;;2205933;59;3903;-20
2024/01/07 08:43:52;;;;;;;;;;;;;;;;;;2208457;59;1805;-22
2024/01/07 08:46:23;;;;;;;;;;;;;;;;;;2207450;59;2725;-19
2024/01/07 08:48:54;;;;;;;;;;;;;;;;;;2208600;59;3145;-19
2024/01/07 08:51:24;;;;;;;;;;;;;;;;;;2207895;59;2438;-22
2024/01/07 08:53:57;;;;;;;;;;;;;;;;;;2207332;59;1991;-19
2024/01/07 08:56:27;;;;;;;;;;;;;;;;;;2206444;59;2553;-22
2024/01/07 08:58:59;;;;;;;;;;;;;;;;;;2208354;59;2718;-21
2024/01/07 09:01:30;;;;;;;;;;;;;;;;;;2209094;53;2582;-20
2024/01/07 09:04:00;;;;;;;;;;;;;;;;;;2208973;59;2491;-22
2024/01/07 09:06:32;;;;;;;;;;;;;;;;;;2209212;59;2654;-19
2024/01/07 09:09:05;;;;;;;;;;;;;;;;;;2207747;59;1824;-19
2024/01/07 09:11:36;;;;;;;;;;;;;;;;;;2205406;67;2739;-19
2024/01/07 09:14:06;;;;;;;;;;;;;;;;;;2204924;59;2079;-19
2024/01/07 09:16:37;;;;;;;;;;;;;;;;;;2207369;59;2645;-19
2024/01/07 09:19:07;;;;;;;;;;;;;;;;;;2203817;67;2081;-19
2024/01/07 09:21:37;;;;;;;;;;;;;;;;;;2205029;59;1948;-19
2024/01/07 09:24:08;;;;;;;;;;;;;;;;;;2206710;59;2185;-19
2024/01/07 09:26:38;;;;;;;;;;;;;;;;;;2201511;67;2042;-19
2024/01/07 09:29:08;;;;;;;;;;;;;;;;;;2206993;67;2160;-19
2024/01/07 09:31:39;;;;;;;;;;;;;;;;;;2206646;59;2060;-21
2024/01/07 09:34:09;;;;;;;;;;;;;;;;;;2204662;59;2073;-19
2024/01/07 09:36:39;;;;;;;;;;;;;;;;;;2207077;67;3200;-20
2024/01/07 09:39:10;;;;;;;;;;;;;;;;;;2205109;59;2740;-19
2024/01/07 09:41:40;;;;;;;;;;;;;;;;;;2205018;67;1961;-19
2024/01/07 09:44:11;;;;;;;;;;;;;;;;;;2206482;67;1798;-19
2024/01/07 09:46:41;;;;;;;;;;;;;;;;;;2205321;59;3721;-19
2024/01/07 09:49:11;;;;;;;;;;;;;;;;;;2204279;67;1757;-19
2024/01/07 09:51:44;;;;;;;;;;;;;;;;;;2206337;67;1874;-19
2024/01/07 09:54:17;;;;;;;;;;;;;;;;;;2203378;59;2471;-19
2024/01/07 09:56:55;;;;;;;;;;;;;;;;;;2203666;59;2204;-19
2024/01/07 09:59:27;;;;;;;;;;;;;;;;;;2206884;67;2393;-20
2024/01/07 10:01:57;;;;;;;;;;;;;;;;;;2206060;59;2156;-20
2024/01/07 10:04:40;;;;;;;;;;;;;;;;;;2203774;59;2384;-20
2024/01/07 10:07:10;;;;;;;;;;;;;;;;;;2205277;59;2478;-20
2024/01/07 10:09:44;;;;;;;;;;;;;;;;;;2205357;59;2450;-20
2024/01/07 10:12:14;;;;;;;;;;;;;;;;;;2205267;67;1987;-20
2024/01/07 10:14:48;;;;;;;;;;;;;;;;;;2205768;59;1803;-20
2024/01/07 10:17:18;;;;;;;;;;;;;;;;;;2205698;67;2315;-19
2024/01/07 10:19:48;;;;;;;;;;;;;;;;;;2207033;59;2283;-22
2024/01/07 10:22:19;;;;;;;;;;;;;;;;;;2202325;59;2105;-20
2024/01/07 10:24:51;;;;;;;;;;;;;;;;;;2208285;59;1797;-20
2024/01/07 10:27:22;;;;;;;;;;;;;;;;;;2204049;67;2496;-19
2024/01/07 10:29:55;;;;;;;;;;;;;;;;;;2205650;59;2632;-20
2024/01/07 10:32:25;;;;;;;;;;;;;;;;;;2204291;59;3126;-19
2024/01/07 10:35:30;;;;;;;;;;;;;;;;;;2205473;67;3349;-20
2024/01/07 10:38:00;;;;;;;;;;;;;;;;;;2205027;67;1782;-19
2024/01/07 10:40:32;;;;;;;;;;;;;;;;;;2206104;67;1916;-19
2024/01/07 10:43:02;;;;;;;;;;;;;;;;;;2205286;67;2517;-19
2024/01/07 10:45:33;;;;;;;;;;;;;;;;;;2204442;67;1822;-20
2024/01/07 10:48:06;;;;;;;;;;;;;;;;;;2204593;67;1859;-20
2024/01/07 10:50:37;;;;;;;;;;;;;;;;;;2204490;67;2008;-20
2024/01/07 10:53:11;;;;;;;;;;;;;;;;;;2205759;67;1763;-20
2024/01/07 10:55:44;;;;;;;;;;;;;;;;;;2205230;67;1787;-19
2024/01/07 10:58:15;;;;;;;;;;;;;;;;;;2206545;59;2209;-19
2024/01/07 11:00:46;;;;;;;;;;;;;;;;;;2205473;67;1948;-20
2024/01/07 11:03:27;;;;;;;;;;;;;;;;;;2204152;59;2026;-19
2024/01/07 11:05:59;;;;;;;;;;;;;;;;;;2205140;59;2393;-20
2024/01/07 11:08:59;;;;;;;;;;;;;;;;;;2203764;59;1791;-19
2024/01/07 11:11:41;;;;;;;;;;;;;;;;;;2203412;59;1834;-22
2024/01/07 11:14:30;;;;;;;;;;;;;;;;;;2203568;59;2464;-19
2024/01/07 11:17:00;;;;;;;;;;;;;;;;;;2202716;59;2213;-22
2024/01/07 11:19:31;;;;;;;;;;;;;;;;;;2203646;59;1891;-22
2024/01/07 11:22:20;;;;;;;;;;;;;;;;;;2205560;59;1948;-22
2024/01/07 11:24:51;;;;;;;;;;;;;;;;;;2204735;59;2415;-22
2024/01/07 11:27:22;;;;;;;;;;;;;;;;;;2204226;59;1858;-22
2024/01/07 11:29:53;;;;;;;;;;;;;;;;;;2205592;59;2014;-19
2024/01/07 11:32:27;;;;;;;;;;;;;;;;;;2204444;59;2176;-20
2024/01/07 11:35:02;;;;;;;;;;;;;;;;;;2204498;59;3409;-22
2024/01/07 11:37:32;;;;;;;;;;;;;;;;;;2205002;59;2417;-22
2024/01/07 11:40:04;;;;;;;;;;;;;;;;;;2204613;60;2260;-20
2024/01/07 11:42:34;;;;;;;;;;;;;;;;;;2204189;59;2106;-20
2024/01/07 11:45:05;;;;;;;;;;;;;;;;;;2203981;59;2216;-20
2024/01/07 11:47:35;;;;;;;;;;;;;;;;;;2203658;59;1778;-22
2024/01/07 11:50:05;;;;;;;;;;;;;;;;;;2205917;59;2102;-20
2024/01/07 11:52:38;;;;;;;;;;;;;;;;;;2203299;59;1966;-20
2024/01/07 11:55:09;;;;;;;;;;;;;;;;;;2203476;59;2081;-22
2024/01/07 11:57:41;;;;;;;;;;;;;;;;;;2204255;59;2297;-22
2024/01/07 12:00:13;;;;;;;;;;;;;;;;;;2206937;67;1994;-22
2024/01/07 12:02:43;;;;;;;;;;;;;;;;;;2204504;59;2268;-20
2024/01/07 12:05:15;;;;;;;;;;;;;;;;;;2205122;59;2444;-22
2024/01/07 12:07:45;;;;;;;;;;;;;;;;;;2205530;59;1645;-22
2024/01/07 12:10:17;;;;;;;;;;;;;;;;;;2202638;67;2265;-22
2024/01/07 12:12:48;;;;;;;;;;;;;;;;;;2204801;59;2153;-20
2024/01/07 12:15:20;;;;;;;;;;;;;;;;;;2204302;59;1986;-19
2024/01/07 12:18:01;;;;;;;;;;;;;;;;;;2204949;67;2041;-20
2024/01/07 12:20:31;;;;;;;;;;;;;;;;;;2204731;59;1916;-22
2024/01/07 12:23:08;;;;;;;;;;;;;;;;;;2205525;67;1759;-22
2024/01/07 12:25:39;;;;;;;;;;;;;;;;;;2204613;67;2550;-20
2024/01/07 12:28:09;;;;;;;;;;;;;;;;;;2208327;59;2459;-20
2024/01/07 12:30:39;;;;;;;;;;;;;;;;;;2205615;67;1852;-21
2024/01/07 12:33:10;;;;;;;;;;;;;;;;;;2207464;59;2185;-20
2024/01/07 12:35:40;;;;;;;;;;;;;;;;;;2206281;59;3155;-20
2024/01/07 12:38:11;;;;;;;;;;;;;;;;;;2208962;59;2897;-22
2024/01/07 12:40:44;;;;;;;;;;;;;;;;;;2205663;67;1949;-22
2024/01/07 12:43:14;;;;;;;;;;;;;;;;;;2205682;60;1898;-20
2024/01/07 12:45:46;;;;;;;;;;;;;;;;;;2204976;67;2088;-22
2024/01/07 12:48:16;;;;;;;;;;;;;;;;;;2205180;67;2454;-22
2024/01/07 12:50:46;;;;;;;;;;;;;;;;;;2205811;67;1894;-20
2024/01/07 12:53:17;;;;;;;;;;;;;;;;;;2204866;67;1748;-19
2024/01/07 12:55:47;;;;;;;;;;;;;;;;;;2204270;67;2066;-22
2024/01/07 12:58:17;;;;;;;;;;;;;;;;;;2205100;67;2464;-20
2024/01/07 13:00:48;;;;;;;;;;;;;;;;;;2203908;67;2133;-20
2024/01/07 13:03:19;;;;;;;;;;;;;;;;;;2205723;59;2549;-21
2024/01/07 13:05:49;;;;;;;;;;;;;;;;;;2204694;59;1978;-19
2024/01/07 13:08:22;;;;;;;;;;;;;;;;;;2204879;59;1885;-19
2024/01/07 13:10:56;;;;;;;;;;;;;;;;;;2205195;67;2302;-19
2024/01/07 13:13:27;;;;;;;;;;;;;;;;;;2204176;59;1746;-19
2024/01/07 13:16:01;;;;;;;;;;;;;;;;;;2208116;53;3192;-19
2024/01/07 13:18:31;;;;;;;;;;;;;;;;;;2207935;59;2060;-21
2024/01/07 13:21:02;;;;;;;;;;;;;;;;;;2209397;59;1995;-21
2024/01/07 13:23:33;;;;;;;;;;;;;;;;;;2207918;67;2128;-21
2024/01/07 13:26:05;;;;;;;;;;;;;;;;;;2208166;67;2003;-19
2024/01/07 13:28:36;;;;;;;;;;;;;;;;;;2206863;59;2058;-21
2024/01/07 13:31:12;;;;;;;;;;;;;;;;;;2207802;67;1745;-19
2024/01/07 13:33:42;;;;;;;;;;;;;;;;;;2206823;59;2305;-19
2024/01/07 13:36:13;;;;;;;;;;;;;;;;;;2206426;59;3079;-20
2024/01/07 13:38:43;;;;;;;;;;;;;;;;;;2204829;59;3274;-21
2024/01/07 13:41:14;;;;;;;;;;;;;;;;;;2208061;67;1936;-21
2024/01/07 13:43:44;;;;;;;;;;;;;;;;;;2207484;67;2023;-19
2024/01/07 13:46:14;;;;;;;;;;;;;;;;;;2208107;59;1834;-21
2024/01/07 13:48:45;;;;;;;;;;;;;;;;;;2207454;67;3000;-21
2024/01/07 13:51:15;;;;;;;;;;;;;;;;;;2209342;59;2338;-19
2024/01/07 13:53:46;;;;;;;;;;;;;;;;;;2207840;59;1797;-19
2024/01/07 13:56:16;;;;;;;;;;;;;;;;;;2209501;67;2527;-19
2024/01/07 13:58:46;;;;;;;;;;;;;;;;;;2207335;67;2068;-19
2024/01/07 14:01:17;;;;;;;;;;;;;;;;;;2207892;59;2405;-19
2024/01/07 14:03:47;;;;;;;;;;;;;;;;;;2206845;59;2080;-19
2024/01/07 14:06:17;;;;;;;;;;;;;;;;;;2208140;59;1887;-21
2024/01/07 14:08:48;;;;;;;;;;;;;;;;;;2206512;59;2322;-21
2024/01/07 14:11:18;;;;;;;;;;;;;;;;;;2207916;67;1773;-21
2024/01/07 14:13:49;;;;;;;;;;;;;;;;;;2207661;59;1813;-19
2024/01/07 14:16:19;;;;;;;;;;;;;;;;;;2208326;59;1899;-19
2024/01/07 14:18:50;;;;;;;;;;;;;;;;;;2207743;67;2082;-19
2024/01/07 14:21:21;;;;;;;;;;;;;;;;;;2208589;59;2132;-19
2024/01/07 14:23:52;;;;;;;;;;;;;;;;;;2206647;59;2662;-19
2024/01/07 14:26:26;;;;;;;;;;;;;;;;;;2210433;67;1844;-19
2024/01/07 14:28:56;;;;;;;;;;;;;;;;;;2208144;59;2431;-21
2024/01/07 14:31:27;;;;;;;;;;;;;;;;;;2206696;67;2128;-21
2024/01/07 14:33:58;;;;;;;;;;;;;;;;;;2207833;59;2226;-21
2024/01/07 14:36:31;;;;;;;;;;;;;;;;;;2206713;59;2561;-21
2024/01/07 14:39:02;;;;;;;;;;;;;;;;;;2208130;59;2764;-21
2024/01/07 14:41:32;;;;;;;;;;;;;;;;;;2208665;59;2339;-21
2024/01/07 14:44:03;;;;;;;;;;;;;;;;;;2209187;59;2499;-21
2024/01/07 14:46:34;;;;;;;;;;;;;;;;;;2208465;59;1877;-19
2024/01/07 14:49:08;;;;;;;;;;;;;;;;;;2209003;59;1847;-20
2024/01/07 14:51:38;;;;;;;;;;;;;;;;;;2207545;59;2669;-20
2024/01/07 14:54:09;;;;;;;;;;;;;;;;;;2209090;59;1955;-21
2024/01/07 14:56:39;;;;;;;;;;;;;;;;;;2208158;59;2335;-20
2024/01/07 14:59:09;;;;;;;;;;;;;;;;;;2209234;59;1899;-20
2024/01/07 15:01:41;;;;;;;;;;;;;;;;;;2209202;59;2142;-20
2024/01/07 15:04:12;;;;;;;;;;;;;;;;;;2210362;59;1878;-20
2024/01/07 15:06:43;;;;;;;;;;;;;;;;;;2207675;59;2421;-18
2024/01/07 15:09:14;;;;;;;;;;;;;;;;;;2209930;59;2040;-19
2024/01/07 15:11:48;;;;;;;;;;;;;;;;;;2208691;59;1977;-19
2024/01/07 15:14:19;;;;;;;;;;;;;;;;;;2208830;59;1762;-18
2024/01/07 15:16:53;;;;;;;;;;;;;;;;;;2208256;59;2852;-18
2024/01/07 15:19:24;;;;;;;;;;;;;;;;;;2208664;67;1846;-19
2024/01/07 15:21:54;;;;;;;;;;;;;;;;;;2208156;59;2156;-18
2024/01/07 15:24:24;;;;;;;;;;;;;;;;;;2209247;67;1983;-19
2024/01/07 15:26:55;;;;;;;;;;;;;;;;;;2208319;59;1852;-20
2024/01/07 15:29:25;;;;;;;;;;;;;;;;;;2209125;67;2132;-20
2024/01/07 15:31:56;;;;;;;;;;;;;;;;;;2208036;59;1910;-20
2024/01/07 15:34:26;;;;;;;;;;;;;;;;;;2208294;59;2453;-20
2024/01/07 15:36:56;;;;;;;;;;;;;;;;;;2207501;67;2108;-18
2024/01/07 15:39:30;;;;;;;;;;;;;;;;;;2206487;59;3444;-18
2024/01/07 15:42:00;;;;;;;;;;;;;;;;;;2209763;59;2036;-18
2024/01/07 15:44:31;;;;;;;;;;;;;;;;;;2207448;59;1925;-18
2024/01/07 15:47:03;;;;;;;;;;;;;;;;;;2207639;59;1774;-20
2024/01/07 15:49:34;;;;;;;;;;;;;;;;;;2207531;59;1820;-20
2024/01/07 15:52:04;;;;;;;;;;;;;;;;;;2208683;59;2615;-20
2024/01/07 15:54:38;;;;;;;;;;;;;;;;;;2207753;59;2041;-20
2024/01/07 15:57:08;;;;;;;;;;;;;;;;;;2209251;59;1800;-18
2024/01/07 15:59:42;;;;;;;;;;;;;;;;;;2206926;59;2388;-18
2024/01/07 16:02:14;;;;;;;;;;;;;;;;;;2208521;59;2424;-18
2024/01/07 16:04:45;;;;;;;;;;;;;;;;;;2206334;59;6026;-20
2024/01/07 16:07:15;;;;;;;;;;;;;;;;;;2209802;59;1836;-20
2024/01/07 16:09:45;;;;;;;;;;;;;;;;;;2207848;59;1899;-18
2024/01/07 16:12:16;;;;;;;;;;;;;;;;;;2208466;59;2305;-20
2024/01/07 16:14:47;;;;;;;;;;;;;;;;;;2208077;59;2110;-20
2024/01/07 16:17:18;;;;;;;;;;;;;;;;;;2208426;59;1789;-20
2024/01/07 16:19:48;;;;;;;;;;;;;;;;;;2207939;67;2022;-20
2024/01/07 16:22:18;;;;;;;;;;;;;;;;;;2208249;67;2253;-18
2024/01/07 16:24:48;;;;;;;;;;;;;;;;;;2207440;59;2289;-18
2024/01/07 16:27:20;;;;;;;;;;;;;;;;;;2208054;59;2160;-18
2024/01/07 16:29:51;;;;;;;;;;;;;;;;;;2207084;67;1775;-18
2024/01/07 16:32:21;;;;;;;;;;;;;;;;;;2208158;59;2156;-18
2024/01/07 16:34:52;;;;;;;;;;;;;;;;;;2206938;67;1882;-18
2024/01/07 16:37:22;;;;;;;;;;;;;;;;;;2208072;59;1773;-20
2024/01/07 16:39:52;;;;;;;;;;;;;;;;;;2206025;59;3014;-18
2024/01/07 16:42:23;;;;;;;;;;;;;;;;;;2207384;59;2539;-18
2024/01/07 16:44:53;;;;;;;;;;;;;;;;;;2206923;59;2135;-20
2024/01/07 16:47:24;;;;;;;;;;;;;;;;;;2208243;59;1923;-20
2024/01/07 16:49:54;;;;;;;;;;;;;;;;;;2206716;59;1761;-20
2024/01/07 16:52:25;;;;;;;;;;;;;;;;;;2207534;67;2004;-20
2024/01/07 16:54:55;;;;;;;;;;;;;;;;;;2207379;59;2548;-20
2024/01/07 16:57:26;;;;;;;;;;;;;;;;;;2208286;59;2046;-20
2024/01/07 16:59:56;;;;;;;;;;;;;;;;;;2208340;67;2079;-20
2024/01/07 17:02:26;;;;;;;;;;;;;;;;;;2208506;67;2737;-18
2024/01/07 17:04:58;;;;;;;;;;;;;;;;;;2206959;59;2045;-18
2024/01/07 17:07:30;;;;;;;;;;;;;;;;;;2209041;59;1885;-18
2024/01/07 17:10:00;;;;;;;;;;;;;;;;;;2208009;59;2467;-20
2024/01/07 17:12:31;;;;;;;;;;;;;;;;;;2208813;59;1838;-20
2024/01/07 17:15:02;;;;;;;;;;;;;;;;;;2206328;59;2838;-18
2024/01/07 17:17:32;;;;;;;;;;;;;;;;;;2206489;59;2472;-20
2024/01/07 17:20:03;;;;;;;;;;;;;;;;;;2208110;59;2994;-20
2024/01/07 17:22:34;;;;;;;;;;;;;;;;;;2207136;59;2099;-20
2024/01/07 17:25:05;;;;;;;;;;;;;;;;;;2208059;59;1952;-20
2024/01/07 17:27:35;;;;;;;;;;;;;;;;;;2200730;59;2196;-20
2024/01/07 17:30:06;;;;;;;;;;;;;;;;;;2198049;59;2729;-18
2024/01/07 17:32:36;;;;;;;;;;;;;;;;;;2202556;59;2327;-18